sensor_id;sensor_type;location;lat;lon;timestamp;P1;durP1;ratioP1;P2;durP2;ratioP2
68938;SDS011;59064;45.294;11.816;2023-04-30T00:01:37;25.50;;;18.80;;
68938;SDS011;59064;45.294;11.816;2023-04-30T00:04:03;24.90;;;18.80;;
68938;SDS011;59064;45.294;11.816;2023-04-30T00:06:28;25.10;;;18.60;;
68938;SDS011;59064;45.294;11.816;2023-04-30T00:08:55;29.90;;;20.40;;
68938;SDS011;59064;45.294;11.816;2023-04-30T00:11:20;30.70;;;20.80;;
68938;SDS011;59064;45.294;11.816;2023-04-30T00:13:46;30.40;;;21.50;;
68938;SDS011;59064;45.294;11.816;2023-04-30T00:16:11;32.60;;;22.70;;
68938;SDS011;59064;45.294;11.816;2023-04-30T00:18:37;27.30;;;20.50;;
68938;SDS011;59064;45.294;11.816;2023-04-30T00:21:03;31.00;;;21.20;;
68938;SDS011;59064;45.294;11.816;2023-04-30T00:23:29;28.60;;;21.20;;
68938;SDS011;59064;45.294;11.816;2023-04-30T00:25:54;28.80;;;19.70;;
68938;SDS011;59064;45.294;11.816;2023-04-30T00:28:20;23.40;;;16.90;;
68938;SDS011;59064;45.294;11.816;2023-04-30T00:30:45;24.80;;;19.30;;
68938;SDS011;59064;45.294;11.816;2023-04-30T00:33:11;27.20;;;19.90;;
68938;SDS011;59064;45.294;11.816;2023-04-30T00:35:37;22.80;;;16.20;;
68938;SDS011;59064;45.294;11.816;2023-04-30T00:38:02;23.50;;;16.50;;
68938;SDS011;59064;45.294;11.816;2023-04-30T00:40:28;26.20;;;17.60;;
68938;SDS011;59064;45.294;11.816;2023-04-30T00:42:54;24.10;;;17.20;;
68938;SDS011;59064;45.294;11.816;2023-04-30T00:45:20;25.00;;;17.60;;
68938;SDS011;59064;45.294;11.816;2023-04-30T00:47:46;22.70;;;17.10;;
68938;SDS011;59064;45.294;11.816;2023-04-30T00:50:13;27.50;;;18.90;;
68938;SDS011;59064;45.294;11.816;2023-04-30T00:52:43;26.40;;;18.40;;
68938;SDS011;59064;45.294;11.816;2023-04-30T00:55:10;23.20;;;16.20;;
68938;SDS011;59064;45.294;11.816;2023-04-30T00:57:37;28.00;;;19.00;;
68938;SDS011;59064;45.294;11.816;2023-04-30T01:00:04;29.50;;;21.00;;
68938;SDS011;59064;45.294;11.816;2023-04-30T01:02:30;27.40;;;19.40;;
68938;SDS011;59064;45.294;11.816;2023-04-30T01:04:56;26.30;;;18.80;;
68938;SDS011;59064;45.294;11.816;2023-04-30T01:07:22;30.20;;;20.20;;
68938;SDS011;59064;45.294;11.816;2023-04-30T01:09:51;28.50;;;19.50;;
68938;SDS011;59064;45.294;11.816;2023-04-30T01:19:51;27.20;;;18.60;;
68938;SDS011;59064;45.294;11.816;2023-04-30T01:30:31;27.00;;;19.10;;
68938;SDS011;59064;45.294;11.816;2023-04-30T01:32:57;30.90;;;20.10;;
68938;SDS011;59064;45.294;11.816;2023-04-30T01:46:38;36.10;;;25.00;;
68938;SDS011;59064;45.294;11.816;2023-04-30T01:49:21;34.00;;;24.80;;
68938;SDS011;59064;45.294;11.816;2023-04-30T01:52:04;34.10;;;23.00;;
68938;SDS011;59064;45.294;11.816;2023-04-30T01:57:05;31.20;;;22.00;;
68938;SDS011;59064;45.294;11.816;2023-04-30T01:59:33;33.50;;;22.00;;
68938;SDS011;59064;45.294;11.816;2023-04-30T02:02:00;31.50;;;22.90;;
68938;SDS011;59064;45.294;11.816;2023-04-30T02:04:26;31.00;;;20.10;;
68938;SDS011;59064;45.294;11.816;2023-04-30T02:06:51;34.60;;;23.20;;
68938;SDS011;59064;45.294;11.816;2023-04-30T02:09:17;33.10;;;23.30;;
68938;SDS011;59064;45.294;11.816;2023-04-30T02:11:42;30.60;;;21.80;;
68938;SDS011;59064;45.294;11.816;2023-04-30T02:14:08;34.30;;;23.30;;
68938;SDS011;59064;45.294;11.816;2023-04-30T02:16:33;34.70;;;23.00;;
68938;SDS011;59064;45.294;11.816;2023-04-30T02:19:00;33.90;;;23.10;;
68938;SDS011;59064;45.294;11.816;2023-04-30T02:21:26;30.20;;;20.40;;
68938;SDS011;59064;45.294;11.816;2023-04-30T02:23:52;33.60;;;22.80;;
68938;SDS011;59064;45.294;11.816;2023-04-30T02:26:18;33.10;;;23.90;;
68938;SDS011;59064;45.294;11.816;2023-04-30T02:28:45;34.10;;;23.90;;
68938;SDS011;59064;45.294;11.816;2023-04-30T02:31:10;34.60;;;23.10;;
68938;SDS011;59064;45.294;11.816;2023-04-30T02:33:36;30.50;;;21.40;;
68938;SDS011;59064;45.294;11.816;2023-04-30T02:36:01;31.50;;;19.80;;
68938;SDS011;59064;45.294;11.816;2023-04-30T02:38:28;35.70;;;23.90;;
68938;SDS011;59064;45.294;11.816;2023-04-30T02:40:53;36.50;;;25.70;;
68938;SDS011;59064;45.294;11.816;2023-04-30T02:43:19;34.50;;;24.60;;
68938;SDS011;59064;45.294;11.816;2023-04-30T02:45:45;33.00;;;22.50;;
68938;SDS011;59064;45.294;11.816;2023-04-30T02:48:10;38.50;;;25.60;;
68938;SDS011;59064;45.294;11.816;2023-04-30T02:50:36;37.80;;;25.20;;
68938;SDS011;59064;45.294;11.816;2023-04-30T02:53:01;38.10;;;25.20;;
68938;SDS011;59064;45.294;11.816;2023-04-30T02:55:27;39.10;;;25.00;;
68938;SDS011;59064;45.294;11.816;2023-04-30T02:57:52;34.40;;;21.30;;
68938;SDS011;59064;45.294;11.816;2023-04-30T03:00:18;38.00;;;25.50;;
68938;SDS011;59064;45.294;11.816;2023-04-30T03:02:44;32.90;;;21.30;;
68938;SDS011;59064;45.294;11.816;2023-04-30T03:05:10;38.90;;;25.10;;
68938;SDS011;59064;45.294;11.816;2023-04-30T03:07:35;38.20;;;23.40;;
68938;SDS011;59064;45.294;11.816;2023-04-30T03:10:01;38.90;;;23.70;;
68938;SDS011;59064;45.294;11.816;2023-04-30T03:12:27;42.40;;;26.70;;
68938;SDS011;59064;45.294;11.816;2023-04-30T03:14:52;42.40;;;28.20;;
68938;SDS011;59064;45.294;11.816;2023-04-30T03:17:18;36.70;;;25.40;;
68938;SDS011;59064;45.294;11.816;2023-04-30T03:19:43;37.90;;;24.20;;
68938;SDS011;59064;45.294;11.816;2023-04-30T03:22:09;39.50;;;26.20;;
68938;SDS011;59064;45.294;11.816;2023-04-30T03:24:36;42.70;;;29.30;;
68938;SDS011;59064;45.294;11.816;2023-04-30T03:27:02;43.00;;;28.10;;
68938;SDS011;59064;45.294;11.816;2023-04-30T03:29:27;47.90;;;29.20;;
68938;SDS011;59064;45.294;11.816;2023-04-30T03:31:53;44.90;;;28.20;;
68938;SDS011;59064;45.294;11.816;2023-04-30T03:34:18;47.40;;;29.60;;
68938;SDS011;59064;45.294;11.816;2023-04-30T03:36:44;37.90;;;24.70;;
68938;SDS011;59064;45.294;11.816;2023-04-30T03:39:09;46.20;;;29.40;;
68938;SDS011;59064;45.294;11.816;2023-04-30T03:41:35;40.10;;;27.20;;
68938;SDS011;59064;45.294;11.816;2023-04-30T03:44:01;45.90;;;32.30;;
68938;SDS011;59064;45.294;11.816;2023-04-30T03:46:26;43.70;;;29.80;;
68938;SDS011;59064;45.294;11.816;2023-04-30T03:48:52;41.70;;;28.60;;
68938;SDS011;59064;45.294;11.816;2023-04-30T03:51:19;45.30;;;30.00;;
68938;SDS011;59064;45.294;11.816;2023-04-30T03:53:45;48.10;;;32.20;;
68938;SDS011;59064;45.294;11.816;2023-04-30T03:56:11;45.70;;;29.50;;
68938;SDS011;59064;45.294;11.816;2023-04-30T03:58:37;45.20;;;26.20;;
68938;SDS011;59064;45.294;11.816;2023-04-30T04:01:02;45.50;;;31.30;;
68938;SDS011;59064;45.294;11.816;2023-04-30T04:03:28;48.80;;;32.90;;
68938;SDS011;59064;45.294;11.816;2023-04-30T04:05:54;43.70;;;29.90;;
68938;SDS011;59064;45.294;11.816;2023-04-30T04:08:20;42.00;;;28.60;;
68938;SDS011;59064;45.294;11.816;2023-04-30T04:10:46;38.20;;;26.30;;
68938;SDS011;59064;45.294;11.816;2023-04-30T04:13:11;44.70;;;29.30;;
68938;SDS011;59064;45.294;11.816;2023-04-30T04:15:37;47.40;;;31.10;;
68938;SDS011;59064;45.294;11.816;2023-04-30T04:18:02;46.70;;;31.90;;
68938;SDS011;59064;45.294;11.816;2023-04-30T04:20:28;45.40;;;31.30;;
68938;SDS011;59064;45.294;11.816;2023-04-30T04:22:54;41.30;;;28.10;;
68938;SDS011;59064;45.294;11.816;2023-04-30T04:25:20;37.80;;;25.60;;
68938;SDS011;59064;45.294;11.816;2023-04-30T04:27:52;44.20;;;31.10;;
68938;SDS011;59064;45.294;11.816;2023-04-30T04:30:17;40.50;;;27.50;;
68938;SDS011;59064;45.294;11.816;2023-04-30T04:32:43;42.40;;;29.10;;
68938;SDS011;59064;45.294;11.816;2023-04-30T04:35:14;44.00;;;29.10;;
68938;SDS011;59064;45.294;11.816;2023-04-30T04:37:41;36.70;;;25.50;;
68938;SDS011;59064;45.294;11.816;2023-04-30T04:40:07;42.20;;;29.00;;
68938;SDS011;59064;45.294;11.816;2023-04-30T04:42:33;43.90;;;29.40;;
68938;SDS011;59064;45.294;11.816;2023-04-30T04:44:58;40.10;;;27.90;;
68938;SDS011;59064;45.294;11.816;2023-04-30T04:47:24;38.30;;;26.00;;
68938;SDS011;59064;45.294;11.816;2023-04-30T04:49:50;38.30;;;26.50;;
68938;SDS011;59064;45.294;11.816;2023-04-30T04:52:16;41.00;;;27.60;;
68938;SDS011;59064;45.294;11.816;2023-04-30T04:54:41;41.30;;;28.70;;
68938;SDS011;59064;45.294;11.816;2023-04-30T04:57:07;39.60;;;28.90;;
68938;SDS011;59064;45.294;11.816;2023-04-30T04:59:33;43.00;;;28.60;;
68938;SDS011;59064;45.294;11.816;2023-04-30T05:01:58;38.70;;;26.90;;
68938;SDS011;59064;45.294;11.816;2023-04-30T05:04:24;38.00;;;26.20;;
68938;SDS011;59064;45.294;11.816;2023-04-30T05:06:50;38.70;;;25.90;;
68938;SDS011;59064;45.294;11.816;2023-04-30T05:09:15;35.70;;;25.80;;
68938;SDS011;59064;45.294;11.816;2023-04-30T05:11:41;38.10;;;25.90;;
68938;SDS011;59064;45.294;11.816;2023-04-30T05:14:07;38.40;;;25.80;;
68938;SDS011;59064;45.294;11.816;2023-04-30T05:16:33;33.00;;;24.20;;
68938;SDS011;59064;45.294;11.816;2023-04-30T05:18:58;39.20;;;25.80;;
68938;SDS011;59064;45.294;11.816;2023-04-30T05:21:24;38.50;;;26.30;;
68938;SDS011;59064;45.294;11.816;2023-04-30T05:23:53;33.50;;;22.60;;
68938;SDS011;59064;45.294;11.816;2023-04-30T05:26:18;34.70;;;25.40;;
68938;SDS011;59064;45.294;11.816;2023-04-30T05:28:44;37.10;;;24.30;;
68938;SDS011;59064;45.294;11.816;2023-04-30T05:31:09;35.90;;;23.70;;
68938;SDS011;59064;45.294;11.816;2023-04-30T05:33:35;37.00;;;24.70;;
68938;SDS011;59064;45.294;11.816;2023-04-30T05:36:01;35.10;;;24.30;;
68938;SDS011;59064;45.294;11.816;2023-04-30T05:38:27;31.90;;;23.10;;
68938;SDS011;59064;45.294;11.816;2023-04-30T05:40:53;44.20;;;28.50;;
68938;SDS011;59064;45.294;11.816;2023-04-30T05:43:18;36.50;;;25.70;;
68938;SDS011;59064;45.294;11.816;2023-04-30T05:45:43;34.60;;;24.80;;
68938;SDS011;59064;45.294;11.816;2023-04-30T05:48:09;40.80;;;25.50;;
68938;SDS011;59064;45.294;11.816;2023-04-30T05:50:34;43.80;;;29.80;;
68938;SDS011;59064;45.294;11.816;2023-04-30T05:53:00;37.80;;;24.90;;
68938;SDS011;59064;45.294;11.816;2023-04-30T05:55:26;34.80;;;22.40;;
68938;SDS011;59064;45.294;11.816;2023-04-30T05:57:51;29.20;;;21.50;;
68938;SDS011;59064;45.294;11.816;2023-04-30T06:00:17;28.50;;;20.30;;
68938;SDS011;59064;45.294;11.816;2023-04-30T06:02:42;29.00;;;20.60;;
68938;SDS011;59064;45.294;11.816;2023-04-30T06:05:08;29.20;;;21.30;;
68938;SDS011;59064;45.294;11.816;2023-04-30T06:07:33;25.90;;;17.60;;
68938;SDS011;59064;45.294;11.816;2023-04-30T06:09:59;27.10;;;20.70;;
68938;SDS011;59064;45.294;11.816;2023-04-30T06:12:25;31.90;;;21.70;;
68938;SDS011;59064;45.294;11.816;2023-04-30T06:14:51;30.70;;;21.30;;
68938;SDS011;59064;45.294;11.816;2023-04-30T06:17:16;29.40;;;21.50;;
68938;SDS011;59064;45.294;11.816;2023-04-30T06:19:42;29.70;;;22.10;;
68938;SDS011;59064;45.294;11.816;2023-04-30T06:22:08;28.30;;;21.50;;
68938;SDS011;59064;45.294;11.816;2023-04-30T06:24:33;27.10;;;20.50;;
68938;SDS011;59064;45.294;11.816;2023-04-30T06:26:59;28.10;;;22.20;;
68938;SDS011;59064;45.294;11.816;2023-04-30T06:29:25;28.70;;;19.70;;
68938;SDS011;59064;45.294;11.816;2023-04-30T06:31:50;23.70;;;17.00;;
68938;SDS011;59064;45.294;11.816;2023-04-30T06:34:16;27.30;;;20.00;;
68938;SDS011;59064;45.294;11.816;2023-04-30T06:36:42;31.70;;;21.40;;
68938;SDS011;59064;45.294;11.816;2023-04-30T06:39:08;29.40;;;22.00;;
68938;SDS011;59064;45.294;11.816;2023-04-30T06:41:33;26.60;;;20.00;;
68938;SDS011;59064;45.294;11.816;2023-04-30T06:43:59;27.30;;;18.30;;
68938;SDS011;59064;45.294;11.816;2023-04-30T06:46:24;24.70;;;17.60;;
68938;SDS011;59064;45.294;11.816;2023-04-30T06:48:50;26.00;;;18.80;;
68938;SDS011;59064;45.294;11.816;2023-04-30T06:51:15;24.50;;;19.70;;
68938;SDS011;59064;45.294;11.816;2023-04-30T06:53:41;31.00;;;21.00;;
68938;SDS011;59064;45.294;11.816;2023-04-30T06:56:06;27.50;;;19.70;;
68938;SDS011;59064;45.294;11.816;2023-04-30T06:58:32;31.50;;;21.40;;
68938;SDS011;59064;45.294;11.816;2023-04-30T07:00:58;27.50;;;19.60;;
68938;SDS011;59064;45.294;11.816;2023-04-30T07:03:25;27.40;;;19.70;;
68938;SDS011;59064;45.294;11.816;2023-04-30T07:05:51;29.90;;;19.80;;
68938;SDS011;59064;45.294;11.816;2023-04-30T07:08:18;29.10;;;19.90;;
68938;SDS011;59064;45.294;11.816;2023-04-30T07:10:43;28.80;;;20.60;;
68938;SDS011;59064;45.294;11.816;2023-04-30T07:13:09;30.60;;;20.70;;
68938;SDS011;59064;45.294;11.816;2023-04-30T07:15:34;31.20;;;20.70;;
68938;SDS011;59064;45.294;11.816;2023-04-30T07:18:01;29.60;;;21.00;;
68938;SDS011;59064;45.294;11.816;2023-04-30T07:20:27;25.90;;;20.40;;
68938;SDS011;59064;45.294;11.816;2023-04-30T07:22:53;27.80;;;18.90;;
68938;SDS011;59064;45.294;11.816;2023-04-30T07:25:19;25.60;;;17.80;;
68938;SDS011;59064;45.294;11.816;2023-04-30T07:27:45;29.20;;;20.60;;
68938;SDS011;59064;45.294;11.816;2023-04-30T07:30:11;25.60;;;18.60;;
68938;SDS011;59064;45.294;11.816;2023-04-30T07:32:36;24.70;;;19.10;;
68938;SDS011;59064;45.294;11.816;2023-04-30T07:35:05;26.20;;;18.60;;
68938;SDS011;59064;45.294;11.816;2023-04-30T07:37:30;30.30;;;19.60;;
68938;SDS011;59064;45.294;11.816;2023-04-30T07:39:56;28.70;;;20.90;;
68938;SDS011;59064;45.294;11.816;2023-04-30T07:42:22;26.10;;;19.30;;
68938;SDS011;59064;45.294;11.816;2023-04-30T07:44:48;24.10;;;18.40;;
68938;SDS011;59064;45.294;11.816;2023-04-30T07:47:13;27.30;;;18.70;;
68938;SDS011;59064;45.294;11.816;2023-04-30T07:49:39;32.20;;;23.30;;
68938;SDS011;59064;45.294;11.816;2023-04-30T07:52:05;30.10;;;22.20;;
68938;SDS011;59064;45.294;11.816;2023-04-30T07:54:32;28.90;;;20.50;;
68938;SDS011;59064;45.294;11.816;2023-04-30T07:57:00;29.10;;;21.30;;
68938;SDS011;59064;45.294;11.816;2023-04-30T07:59:27;27.20;;;19.10;;
68938;SDS011;59064;45.294;11.816;2023-04-30T08:01:53;25.70;;;20.10;;
68938;SDS011;59064;45.294;11.816;2023-04-30T08:04:18;26.50;;;19.40;;
68938;SDS011;59064;45.294;11.816;2023-04-30T08:06:44;23.60;;;16.70;;
68938;SDS011;59064;45.294;11.816;2023-04-30T08:09:09;26.50;;;19.90;;
68938;SDS011;59064;45.294;11.816;2023-04-30T08:11:35;27.00;;;18.90;;
68938;SDS011;59064;45.294;11.816;2023-04-30T08:14:00;21.20;;;16.00;;
68938;SDS011;59064;45.294;11.816;2023-04-30T08:16:27;25.80;;;18.80;;
68938;SDS011;59064;45.294;11.816;2023-04-30T08:18:53;25.50;;;15.50;;
68938;SDS011;59064;45.294;11.816;2023-04-30T08:21:18;20.60;;;14.10;;
68938;SDS011;59064;45.294;11.816;2023-04-30T08:23:44;19.80;;;13.90;;
68938;SDS011;59064;45.294;11.816;2023-04-30T08:26:10;19.80;;;13.30;;
68938;SDS011;59064;45.294;11.816;2023-04-30T08:28:35;22.10;;;18.20;;
68938;SDS011;59064;45.294;11.816;2023-04-30T08:31:01;22.40;;;15.90;;
68938;SDS011;59064;45.294;11.816;2023-04-30T08:33:26;25.90;;;17.00;;
68938;SDS011;59064;45.294;11.816;2023-04-30T08:35:52;14.30;;;9.40;;
68938;SDS011;59064;45.294;11.816;2023-04-30T08:38:18;18.10;;;11.40;;
68938;SDS011;59064;45.294;11.816;2023-04-30T08:40:44;18.70;;;11.00;;
68938;SDS011;59064;45.294;11.816;2023-04-30T08:43:16;15.40;;;10.80;;
68938;SDS011;59064;45.294;11.816;2023-04-30T08:45:43;16.50;;;10.10;;
68938;SDS011;59064;45.294;11.816;2023-04-30T08:48:09;15.20;;;11.50;;
68938;SDS011;59064;45.294;11.816;2023-04-30T08:50:40;17.40;;;11.60;;
68938;SDS011;59064;45.294;11.816;2023-04-30T08:53:06;16.40;;;11.60;;
68938;SDS011;59064;45.294;11.816;2023-04-30T08:55:32;15.70;;;12.20;;
68938;SDS011;59064;45.294;11.816;2023-04-30T08:57:59;17.10;;;11.70;;
68938;SDS011;59064;45.294;11.816;2023-04-30T09:00:24;16.60;;;12.30;;
68938;SDS011;59064;45.294;11.816;2023-04-30T09:02:51;18.80;;;13.10;;
68938;SDS011;59064;45.294;11.816;2023-04-30T09:05:18;18.90;;;12.80;;
68938;SDS011;59064;45.294;11.816;2023-04-30T09:07:44;18.30;;;12.70;;
68938;SDS011;59064;45.294;11.816;2023-04-30T09:12:41;16.10;;;11.20;;
68938;SDS011;59064;45.294;11.816;2023-04-30T09:15:10;18.80;;;13.10;;
68938;SDS011;59064;45.294;11.816;2023-04-30T09:17:37;17.70;;;12.50;;
68938;SDS011;59064;45.294;11.816;2023-04-30T09:20:07;17.50;;;12.10;;
68938;SDS011;59064;45.294;11.816;2023-04-30T09:22:34;16.90;;;12.70;;
68938;SDS011;59064;45.294;11.816;2023-04-30T09:25:01;14.00;;;10.30;;
68938;SDS011;59064;45.294;11.816;2023-04-30T09:27:26;15.00;;;10.90;;
68938;SDS011;59064;45.294;11.816;2023-04-30T09:29:52;15.30;;;11.10;;
68938;SDS011;59064;45.294;11.816;2023-04-30T09:32:17;14.70;;;9.70;;
68938;SDS011;59064;45.294;11.816;2023-04-30T09:34:43;15.00;;;11.00;;
68938;SDS011;59064;45.294;11.816;2023-04-30T09:37:09;14.10;;;9.60;;
68938;SDS011;59064;45.294;11.816;2023-04-30T09:39:49;16.10;;;10.30;;
68938;SDS011;59064;45.294;11.816;2023-04-30T09:42:16;13.10;;;9.20;;
68938;SDS011;59064;45.294;11.816;2023-04-30T09:44:43;12.70;;;10.30;;
68938;SDS011;59064;45.294;11.816;2023-04-30T09:47:16;12.00;;;9.50;;
68938;SDS011;59064;45.294;11.816;2023-04-30T09:49:47;13.60;;;9.70;;
68938;SDS011;59064;45.294;11.816;2023-04-30T09:52:17;14.20;;;9.30;;
68938;SDS011;59064;45.294;11.816;2023-04-30T09:54:44;17.40;;;11.60;;
68938;SDS011;59064;45.294;11.816;2023-04-30T09:57:10;15.70;;;11.90;;
68938;SDS011;59064;45.294;11.816;2023-04-30T09:59:38;13.60;;;10.50;;
68938;SDS011;59064;45.294;11.816;2023-04-30T10:02:08;15.20;;;11.30;;
68938;SDS011;59064;45.294;11.816;2023-04-30T10:04:35;14.30;;;11.00;;
68938;SDS011;59064;45.294;11.816;2023-04-30T10:07:08;14.10;;;10.20;;
68938;SDS011;59064;45.294;11.816;2023-04-30T10:12:43;13.10;;;9.60;;
68938;SDS011;59064;45.294;11.816;2023-04-30T10:18:05;14.50;;;10.60;;
68938;SDS011;59064;45.294;11.816;2023-04-30T10:20:35;15.50;;;10.60;;
68938;SDS011;59064;45.294;11.816;2023-04-30T10:23:02;12.90;;;8.80;;
68938;SDS011;59064;45.294;11.816;2023-04-30T10:25:28;11.90;;;9.00;;
68938;SDS011;59064;45.294;11.816;2023-04-30T10:27:54;11.80;;;9.30;;
68938;SDS011;59064;45.294;11.816;2023-04-30T10:30:21;10.80;;;8.30;;
68938;SDS011;59064;45.294;11.816;2023-04-30T10:33:11;12.30;;;9.50;;
68938;SDS011;59064;45.294;11.816;2023-04-30T10:35:50;11.90;;;8.60;;
68938;SDS011;59064;45.294;11.816;2023-04-30T10:38:22;10.10;;;7.10;;
68938;SDS011;59064;45.294;11.816;2023-04-30T10:40:50;10.80;;;7.30;;
68938;SDS011;59064;45.294;11.816;2023-04-30T10:43:19;10.30;;;7.10;;
68938;SDS011;59064;45.294;11.816;2023-04-30T10:45:46;11.00;;;7.80;;
68938;SDS011;59064;45.294;11.816;2023-04-30T10:48:13;10.90;;;8.10;;
68938;SDS011;59064;45.294;11.816;2023-04-30T10:50:41;10.40;;;6.00;;
68938;SDS011;59064;45.294;11.816;2023-04-30T10:53:10;12.60;;;6.50;;
68938;SDS011;59064;45.294;11.816;2023-04-30T10:55:47;11.30;;;7.30;;
68938;SDS011;59064;45.294;11.816;2023-04-30T10:58:26;10.70;;;7.20;;
68938;SDS011;59064;45.294;11.816;2023-04-30T11:03:40;11.90;;;6.50;;
68938;SDS011;59064;45.294;11.816;2023-04-30T11:06:10;12.90;;;6.10;;
68938;SDS011;59064;45.294;11.816;2023-04-30T11:08:42;9.50;;;7.20;;
68938;SDS011;59064;45.294;11.816;2023-04-30T11:11:18;8.50;;;5.20;;
68938;SDS011;59064;45.294;11.816;2023-04-30T11:13:57;8.10;;;5.70;;
68938;SDS011;59064;45.294;11.816;2023-04-30T11:16:33;8.00;;;5.00;;
68938;SDS011;59064;45.294;11.816;2023-04-30T11:19:05;9.10;;;5.50;;
68938;SDS011;59064;45.294;11.816;2023-04-30T11:21:38;12.20;;;6.90;;
68938;SDS011;59064;45.294;11.816;2023-04-30T11:24:05;10.00;;;7.10;;
68938;SDS011;59064;45.294;11.816;2023-04-30T11:29:32;12.70;;;8.10;;
68938;SDS011;59064;45.294;11.816;2023-04-30T11:31:59;11.90;;;7.50;;
68938;SDS011;59064;45.294;11.816;2023-04-30T11:34:25;11.10;;;7.40;;
68938;SDS011;59064;45.294;11.816;2023-04-30T11:36:51;10.30;;;6.10;;
68938;SDS011;59064;45.294;11.816;2023-04-30T11:39:23;10.40;;;7.50;;
68938;SDS011;59064;45.294;11.816;2023-04-30T11:41:49;11.60;;;8.20;;
68938;SDS011;59064;45.294;11.816;2023-04-30T11:44:22;11.90;;;8.40;;
68938;SDS011;59064;45.294;11.816;2023-04-30T11:46:50;10.70;;;7.70;;
68938;SDS011;59064;45.294;11.816;2023-04-30T11:49:15;7.80;;;5.40;;
68938;SDS011;59064;45.294;11.816;2023-04-30T11:51:41;8.60;;;6.30;;
68938;SDS011;59064;45.294;11.816;2023-04-30T11:54:07;8.70;;;5.50;;
68938;SDS011;59064;45.294;11.816;2023-04-30T11:56:36;9.30;;;6.20;;
68938;SDS011;59064;45.294;11.816;2023-04-30T11:59:07;12.30;;;6.90;;
68938;SDS011;59064;45.294;11.816;2023-04-30T12:01:35;8.80;;;6.50;;
68938;SDS011;59064;45.294;11.816;2023-04-30T12:04:04;7.80;;;4.90;;
68938;SDS011;59064;45.294;11.816;2023-04-30T12:06:30;5.90;;;3.50;;
68938;SDS011;59064;45.294;11.816;2023-04-30T12:08:57;7.40;;;5.20;;
68938;SDS011;59064;45.294;11.816;2023-04-30T12:11:32;5.90;;;3.60;;
68938;SDS011;59064;45.294;11.816;2023-04-30T12:16:38;3.80;;;1.70;;
68938;SDS011;59064;45.294;11.816;2023-04-30T12:19:13;3.40;;;1.70;;
68938;SDS011;59064;45.294;11.816;2023-04-30T12:21:41;3.20;;;1.60;;
68938;SDS011;59064;45.294;11.816;2023-04-30T12:24:15;4.10;;;1.80;;
68938;SDS011;59064;45.294;11.816;2023-04-30T12:26:42;3.20;;;1.60;;
68938;SDS011;59064;45.294;11.816;2023-04-30T12:29:17;4.40;;;1.60;;
68938;SDS011;59064;45.294;11.816;2023-04-30T12:31:43;3.30;;;1.80;;
68938;SDS011;59064;45.294;11.816;2023-04-30T12:34:13;4.70;;;1.90;;
68938;SDS011;59064;45.294;11.816;2023-04-30T12:36:39;3.50;;;1.90;;
68938;SDS011;59064;45.294;11.816;2023-04-30T12:39:10;3.60;;;2.10;;
68938;SDS011;59064;45.294;11.816;2023-04-30T12:41:42;3.90;;;2.20;;
68938;SDS011;59064;45.294;11.816;2023-04-30T12:44:20;4.40;;;2.40;;
68938;SDS011;59064;45.294;11.816;2023-04-30T12:46:48;4.00;;;2.00;;
68938;SDS011;59064;45.294;11.816;2023-04-30T12:49:21;4.10;;;2.10;;
68938;SDS011;59064;45.294;11.816;2023-04-30T12:52:12;3.60;;;1.90;;
68938;SDS011;59064;45.294;11.816;2023-04-30T12:54:39;5.60;;;2.50;;
68938;SDS011;59064;45.294;11.816;2023-04-30T12:57:10;4.50;;;2.30;;
68938;SDS011;59064;45.294;11.816;2023-04-30T12:59:55;3.90;;;2.10;;
68938;SDS011;59064;45.294;11.816;2023-04-30T13:02:28;3.80;;;2.00;;
68938;SDS011;59064;45.294;11.816;2023-04-30T13:04:56;4.80;;;2.10;;
68938;SDS011;59064;45.294;11.816;2023-04-30T13:07:21;3.30;;;1.50;;
68938;SDS011;59064;45.294;11.816;2023-04-30T13:09:47;3.20;;;1.50;;
68938;SDS011;59064;45.294;11.816;2023-04-30T13:12:13;3.70;;;2.00;;
68938;SDS011;59064;45.294;11.816;2023-04-30T13:14:39;3.40;;;1.80;;
68938;SDS011;59064;45.294;11.816;2023-04-30T13:17:05;3.00;;;1.10;;
68938;SDS011;59064;45.294;11.816;2023-04-30T13:19:32;3.40;;;1.70;;
68938;SDS011;59064;45.294;11.816;2023-04-30T13:21:58;2.80;;;1.40;;
68938;SDS011;59064;45.294;11.816;2023-04-30T13:24:25;4.50;;;1.90;;
68938;SDS011;59064;45.294;11.816;2023-04-30T13:26:52;5.40;;;1.80;;
68938;SDS011;59064;45.294;11.816;2023-04-30T13:29:17;3.00;;;1.70;;
68938;SDS011;59064;45.294;11.816;2023-04-30T13:31:45;5.50;;;1.70;;
68938;SDS011;59064;45.294;11.816;2023-04-30T13:34:13;3.20;;;1.60;;
68938;SDS011;59064;45.294;11.816;2023-04-30T13:36:39;5.30;;;2.10;;
68938;SDS011;59064;45.294;11.816;2023-04-30T13:39:04;4.00;;;1.60;;
68938;SDS011;59064;45.294;11.816;2023-04-30T13:41:31;4.00;;;1.60;;
68938;SDS011;59064;45.294;11.816;2023-04-30T13:43:57;4.50;;;1.60;;
68938;SDS011;59064;45.294;11.816;2023-04-30T13:46:25;4.20;;;1.80;;
68938;SDS011;59064;45.294;11.816;2023-04-30T13:48:50;3.50;;;1.60;;
68938;SDS011;59064;45.294;11.816;2023-04-30T13:51:17;3.00;;;1.70;;
68938;SDS011;59064;45.294;11.816;2023-04-30T13:53:43;4.80;;;1.40;;
68938;SDS011;59064;45.294;11.816;2023-04-30T13:56:09;3.60;;;1.70;;
68938;SDS011;59064;45.294;11.816;2023-04-30T13:58:34;4.50;;;1.80;;
68938;SDS011;59064;45.294;11.816;2023-04-30T14:01:00;4.40;;;1.60;;
68938;SDS011;59064;45.294;11.816;2023-04-30T14:03:26;4.10;;;1.70;;
68938;SDS011;59064;45.294;11.816;2023-04-30T14:05:53;3.60;;;1.70;;
68938;SDS011;59064;45.294;11.816;2023-04-30T14:08:19;3.00;;;1.70;;
68938;SDS011;59064;45.294;11.816;2023-04-30T14:10:44;3.20;;;1.50;;
68938;SDS011;59064;45.294;11.816;2023-04-30T14:13:10;2.80;;;1.60;;
68938;SDS011;59064;45.294;11.816;2023-04-30T14:15:36;4.00;;;1.60;;
68938;SDS011;59064;45.294;11.816;2023-04-30T14:18:02;4.20;;;1.50;;
68938;SDS011;59064;45.294;11.816;2023-04-30T14:20:28;4.50;;;1.40;;
68938;SDS011;59064;45.294;11.816;2023-04-30T14:22:54;3.60;;;1.50;;
68938;SDS011;59064;45.294;11.816;2023-04-30T14:25:19;3.60;;;1.90;;
68938;SDS011;59064;45.294;11.816;2023-04-30T14:27:45;4.00;;;1.70;;
68938;SDS011;59064;45.294;11.816;2023-04-30T14:30:11;4.80;;;1.60;;
68938;SDS011;59064;45.294;11.816;2023-04-30T14:32:37;3.00;;;1.50;;
68938;SDS011;59064;45.294;11.816;2023-04-30T14:35:03;3.40;;;1.70;;
68938;SDS011;59064;45.294;11.816;2023-04-30T14:37:29;3.80;;;1.40;;
68938;SDS011;59064;45.294;11.816;2023-04-30T14:39:55;3.30;;;1.50;;
68938;SDS011;59064;45.294;11.816;2023-04-30T14:42:20;3.50;;;1.30;;
68938;SDS011;59064;45.294;11.816;2023-04-30T14:44:46;5.10;;;1.40;;
68938;SDS011;59064;45.294;11.816;2023-04-30T14:47:11;3.70;;;1.50;;
68938;SDS011;59064;45.294;11.816;2023-04-30T14:49:37;3.60;;;1.60;;
68938;SDS011;59064;45.294;11.816;2023-04-30T14:52:03;4.30;;;1.70;;
68938;SDS011;59064;45.294;11.816;2023-04-30T14:54:29;4.30;;;1.70;;
68938;SDS011;59064;45.294;11.816;2023-04-30T14:56:54;3.00;;;1.10;;
68938;SDS011;59064;45.294;11.816;2023-04-30T14:59:20;3.20;;;1.30;;
68938;SDS011;59064;45.294;11.816;2023-04-30T15:01:45;2.60;;;1.10;;